Time,TemperatureF,DewpointF,PressureIn,WindDirection,WindDirectionDegrees,WindSpeedMPH,WindSpeedGustMPH,Humidity,HourlyPrecipIn,Conditions,Clouds,dailyrainin,SoftwareType,DateUTC
2013-02-22 00:00:00,45.7,35.4,30.15,NE,40,2.0,7.0,67,0.00,,,-99.99,Weather View 32 v60,2013-02-22 08:00:00,
2013-02-22 00:05:00,45.9,35.5,30.15,NE,36,4.0,7.0,67,0.00,,,-99.99,Weather View 32 v60,2013-02-22 08:05:00,
2013-02-22 00:10:00,46.1,35.4,30.15,NNE,22,4.0,8.0,66,0.00,,,-99.99,Weather View 32 v60,2013-02-22 08:10:00,
2013-02-22 00:15:00,46.2,35.5,30.15,ENE,59,4.0,8.0,66,0.00,,,-99.99,Weather View 32 v60,2013-02-22 08:15:00,
2013-02-22 00:20:00,46.1,35.4,30.15,North,7,2.0,8.0,66,0.00,,,-99.99,Weather View 32 v60,2013-02-22 08:20:00,
2013-02-22 00:25:00,46.0,35.3,30.15,NNE,22,2.0,8.0,66,0.00,,,-99.99,Weather View 32 v60,2013-02-22 08:25:00,
2013-02-22 00:30:00,45.9,35.2,30.15,NE,37,2.0,8.0,66,0.00,,,-99.99,Weather View 32 v60,2013-02-22 08:30:00,
2013-02-22 00:35:00,45.7,35.4,30.15,ENE,69,3.0,8.0,67,0.00,,,-99.99,Weather View 32 v60,2013-02-22 08:35:00,
2013-02-22 00:40:00,45.6,35.3,30.15,NE,50,1.0,8.0,67,0.00,,,-99.99,Weather View 32 v60,2013-02-22 08:40:00,
2013-02-22 00:45:00,45.3,35.3,30.15,NE,38,2.0,8.0,68,0.00,,,-99.99,Weather View 32 v60,2013-02-22 08:45:00,
2013-02-22 00:50:00,44.9,35.0,30.15,NNE,30,1.0,8.0,68,0.00,,,-99.99,Weather View 32 v60,2013-02-22 08:50:00,
2013-02-22 00:55:00,44.9,35.3,30.15,NNE,19,3.0,8.0,69,0.00,,,-99.99,Weather View 32 v60,2013-02-22 08:55:00,
2013-02-22 01:00:00,45.0,35.4,30.15,NNE,23,3.0,8.0,69,0.00,,,-99.99,Weather View 32 v60,2013-02-22 09:00:00,
2013-02-22 01:05:00,44.9,35.3,30.15,NE,41,4.0,8.0,69,0.00,,,-99.99,Weather View 32 v60,2013-02-22 09:05:00,
2013-02-22 01:10:00,44.7,35.1,30.15,NNW,339,1.0,7.0,69,0.00,,,-99.99,Weather View 32 v60,2013-02-22 09:10:00,
2013-02-22 01:15:00,44.6,35.4,30.15,WNW,301,2.0,6.0,70,0.00,,,-99.99,Weather View 32 v60,2013-02-22 09:15:00,
2013-02-22 01:20:00,44.5,35.3,30.16,NNW,344,2.0,6.0,70,0.00,,,-99.99,Weather View 32 v60,2013-02-22 09:20:00,
2013-02-22 01:25:00,44.5,35.3,30.16,North,5,3.0,6.0,70,0.00,,,-99.99,Weather View 32 v60,2013-02-22 09:25:00,
2013-02-22 01:30:00,44.2,35.0,30.15,NNE,18,3.0,6.0,70,0.00,,,-99.99,Weather View 32 v60,2013-02-22 09:30:00,
2013-02-22 01:35:00,44.1,35.3,30.15,NE,46,1.0,6.0,71,0.00,,,-99.99,Weather View 32 v60,2013-02-22 09:35:00,
2013-02-22 01:40:00,43.9,35.1,30.15,NNE,17,2.0,6.0,71,0.00,,,-99.99,Weather View 32 v60,2013-02-22 09:40:00,
2013-02-22 01:50:00,43.7,35.3,30.15,NE,34,2.0,6.0,72,0.00,,,-99.99,Weather View 32 v60,2013-02-22 09:50:00,
2013-02-22 02:00:00,43.5,35.1,30.15,NE,38,2.0,6.0,72,0.00,,,-99.99,Weather View 32 v60,2013-02-22 10:00:00,
2013-02-22 02:05:00,43.4,35.0,30.15,North,9,2.0,6.0,72,0.00,,,-99.99,Weather View 32 v60,2013-02-22 10:05:00,
2013-02-22 02:20:00,43.0,34.9,30.15,NNE,32,2.0,5.0,73,0.00,,,-99.99,Weather View 32 v60,2013-02-22 10:20:00,
2013-02-22 02:30:00,44.5,35.3,30.16,North,5,3.0,6.0,70,0.00,,,-99.99,Weather View 32 v60,2013-02-22 10:30:00,
2013-02-22 02:35:00,43.4,35.3,30.15,ENE,59,2.0,7.0,73,0.00,,,-99.99,Weather View 32 v60,2013-02-22 10:35:00,
2013-02-22 02:40:00,43.6,35.5,30.15,NE,56,4.0,7.0,73,0.00,,,-99.99,Weather View 32 v60,2013-02-22 10:40:00,
2013-02-22 02:45:00,43.7,35.6,30.15,NE,42,4.0,7.0,73,0.00,,,-99.99,Weather View 32 v60,2013-02-22 10:45:00,
2013-02-22 02:48:00,43.8,35.0,30.15,NNE,26,4.0,6.0,71,0.00,,,-99.99,Weather View 32 v60,2013-02-22 10:48:00,
2013-02-22 02:58:00,43.6,35.2,30.15,NE,44,2.0,6.0,72,0.00,,,-99.99,Weather View 32 v60,2013-02-22 10:58:00,
2013-02-22 03:13:00,43.2,34.8,30.15,NE,47,2.0,5.0,72,0.00,,,-99.99,Weather View 32 v60,2013-02-22 11:13:00,
2013-02-22 03:18:00,43.1,35.0,30.15,NE,55,2.0,5.0,73,0.00,,,-99.99,Weather View 32 v60,2013-02-22 11:18:00,
2013-02-22 03:28:00,43.1,35.4,30.16,NNE,33,2.0,5.0,74,0.00,,,-99.99,Weather View 32 v60,2013-02-22 11:28:00,
2013-02-22 03:53:00,43.6,35.5,30.15,ENE,76,4.0,7.0,73,0.00,,,-99.99,Weather View 32 v60,2013-02-22 11:53:00,
2013-02-22 03:58:00,43.5,35.4,30.15,NNE,17,1.0,7.0,73,0.00,,,-99.99,Weather View 32 v60,2013-02-22 11:58:00,
2013-02-22 04:03:00,43.3,35.2,30.15,NNE,31,0.0,7.0,73,0.00,,,-99.99,Weather View 32 v60,2013-02-22 12:03:00,
2013-02-22 04:08:00,43.1,35.4,30.15,North,4,1.0,7.0,74,0.00,,,-99.99,Weather View 32 v60,2013-02-22 12:08:00,
2013-02-22 04:13:00,42.9,35.2,30.15,NNE,13,2.0,7.0,74,0.00,,,-99.99,Weather View 32 v60,2013-02-22 12:13:00,
2013-02-22 04:15:00,41.6,34.9,30.18,NNE,32,2.0,6.0,77,0.00,,,-99.99,Weather View 32 v60,2013-02-22 12:15:00,
2013-02-22 04:18:00,42.8,35.1,30.16,North,357,2.0,7.0,74,0.00,,,-99.99,Weather View 32 v60,2013-02-22 12:18:00,
2013-02-22 04:25:00,41.8,35.1,30.18,NE,43,2.0,6.0,77,0.00,,,-99.99,Weather View 32 v60,2013-02-22 12:25:00,
2013-02-22 04:28:00,43.1,35.4,30.16,ENE,57,3.0,7.0,74,0.00,,,-99.99,Weather View 32 v60,2013-02-22 12:28:00,
2013-02-22 04:33:00,43.0,35.3,30.16,NNE,19,1.0,6.0,74,0.00,,,-99.99,Weather View 32 v60,2013-02-22 12:33:00,
2013-02-22 04:38:00,42.6,34.9,30.15,ENE,76,1.0,6.0,74,0.00,,,-99.99,Weather View 32 v60,2013-02-22 12:38:00,
2013-02-22 04:40:00,41.6,34.9,30.18,ENE,62,3.0,6.0,77,0.00,,,-99.99,Weather View 32 v60,2013-02-22 12:40:00,
2013-02-22 04:48:00,41.9,34.5,30.17,North,4,0.0,6.0,75,0.00,,,-99.99,Weather View 32 v60,2013-02-22 12:48:00,
2013-02-22 04:53:00,41.5,34.2,30.17,NNE,20,1.0,5.0,75,0.00,,,-99.99,Weather View 32 v60,2013-02-22 12:53:00,
2013-02-22 04:58:00,41.4,34.4,30.17,NNE,30,2.0,5.0,76,0.00,,,-99.99,Weather View 32 v60,2013-02-22 12:58:00,
2013-02-22 05:08:00,41.5,34.8,30.17,NNE,23,2.0,5.0,77,0.00,,,-99.99,Weather View 32 v60,2013-02-22 13:08:00,
2013-02-22 05:13:00,41.4,34.7,30.18,NE,51,2.0,5.0,77,0.00,,,-99.99,Weather View 32 v60,2013-02-22 13:13:00,
2013-02-22 05:15:00,41.4,34.7,30.18,NNE,33,1.0,6.0,77,0.00,,,-99.99,Weather View 32 v60,2013-02-22 13:15:00,
2013-02-22 05:23:00,41.7,35.0,30.18,NE,46,2.0,6.0,77,0.00,,,-99.99,Weather View 32 v60,2013-02-22 13:23:00,
2013-02-22 05:25:00,40.6,33.9,30.18,WNW,286,0.0,6.0,77,0.00,,,-99.99,Weather View 32 v60,2013-02-22 13:25:00,
2013-02-22 05:28:00,41.8,35.1,30.18,NE,43,2.0,6.0,77,0.00,,,-99.99,Weather View 32 v60,2013-02-22 13:28:00,
2013-02-22 05:33:00,41.9,35.2,30.17,NE,49,2.0,6.0,77,0.00,,,-99.99,Weather View 32 v60,2013-02-22 13:33:00,
2013-02-22 05:38:00,41.6,34.9,30.18,NE,51,2.0,6.0,77,0.00,,,-99.99,Weather View 32 v60,2013-02-22 13:38:00,
2013-02-22 05:48:00,41.5,34.8,30.18,NE,46,2.0,6.0,77,0.00,,,-99.99,Weather View 32 v60,2013-02-22 13:48:00,
2013-02-22 05:50:00,39.1,34.1,30.19,North,351,2.0,6.0,82,0.00,,,-99.99,Weather View 32 v60,2013-02-22 13:50:00,
2013-02-22 05:53:00,41.6,34.9,30.18,NE,53,4.0,6.0,77,0.00,,,-99.99,Weather View 32 v60,2013-02-22 13:53:00,
2013-02-22 06:03:00,41.9,35.2,30.18,NNE,26,2.0,6.0,77,0.00,,,-99.99,Weather View 32 v60,2013-02-22 14:03:00,
2013-02-22 06:08:00,41.8,34.8,30.18,NE,44,0.0,6.0,76,0.00,,,-99.99,Weather View 32 v60,2013-02-22 14:08:00,
2013-02-22 06:15:00,40.5,34.8,30.20,North,0,2.0,4.0,80,0.00,,,-99.99,Weather View 32 v60,2013-02-22 14:15:00,
2013-02-22 06:23:00,41.1,34.4,30.18,WNW,289,2.0,6.0,77,0.00,,,-99.99,Weather View 32 v60,2013-02-22 14:23:00,
2013-02-22 06:28:00,40.6,33.9,30.18,WNW,286,0.0,6.0,77,0.00,,,-99.99,Weather View 32 v60,2013-02-22 14:28:00,
2013-02-22 06:30:00,42.0,35.6,30.20,North,7,2.0,5.0,78,0.00,,,-99.99,Weather View 32 v60,2013-02-22 14:30:00,
2013-02-22 06:33:00,39.8,33.2,30.18,SSE,151,2.0,6.0,77,0.00,,,-99.99,Weather View 32 v60,2013-02-22 14:33:00,
2013-02-22 06:43:00,38.9,33.3,30.19,SSE,151,2.0,6.0,80,0.00,,,-99.99,Weather View 32 v60,2013-02-22 14:43:00,
2013-02-22 06:45:00,45.1,36.6,30.20,NNE,21,1.0,5.0,72,0.00,,,-99.99,Weather View 32 v60,2013-02-22 14:45:00,
2013-02-22 06:48:00,38.8,33.5,30.19,North,355,2.0,6.0,81,0.00,,,-99.99,Weather View 32 v60,2013-02-22 14:48:00,
2013-02-22 06:58:00,39.3,34.3,30.19,NNW,340,2.0,5.0,82,0.00,,,-99.99,Weather View 32 v60,2013-02-22 14:58:00,
2013-02-22 07:08:00,39.9,34.5,30.19,NW,315,2.0,4.0,81,0.00,,,-99.99,Weather View 32 v60,2013-02-22 15:08:00,
2013-02-22 07:13:00,40.3,34.9,30.19,NW,324,2.0,4.0,81,0.00,,,-99.99,Weather View 32 v60,2013-02-22 15:13:00,
2013-02-22 07:20:00,48.0,36.0,30.21,North,4,4.0,8.0,63,0.00,,,-99.99,Weather View 32 v60,2013-02-22 15:20:00,
2013-02-22 07:23:00,40.8,35.1,30.20,North,349,1.0,4.0,80,0.00,,,-99.99,Weather View 32 v60,2013-02-22 15:23:00,
2013-02-22 07:28:00,41.3,35.3,30.20,NNE,22,2.0,5.0,79,0.00,,,-99.99,Weather View 32 v60,2013-02-22 15:28:00,
2013-02-22 07:30:00,48.6,35.7,30.21,North,350,2.0,8.0,61,0.00,,,-99.99,Weather View 32 v60,2013-02-22 15:30:00,
2013-02-22 07:38:00,43.0,36.3,30.20,NNW,337,0.0,5.0,77,0.00,,,-99.99,Weather View 32 v60,2013-02-22 15:38:00,
2013-02-22 07:43:00,44.1,36.7,30.20,NNE,25,2.0,5.0,75,0.00,,,-99.99,Weather View 32 v60,2013-02-22 15:43:00,
2013-02-22 07:53:00,46.0,36.8,30.21,NNW,346,0.0,5.0,70,0.00,,,-99.99,Weather View 32 v60,2013-02-22 15:53:00,
2013-02-22 07:58:00,46.9,36.9,30.21,NNE,14,1.0,5.0,68,0.00,,,-99.99,Weather View 32 v60,2013-02-22 15:58:00,
2013-02-22 08:08:00,47.9,36.3,30.21,NNE,29,2.0,5.0,64,0.00,,,-99.99,Weather View 32 v60,2013-02-22 16:08:00,
2013-02-22 08:10:00,53.6,36.4,30.22,NNW,340,2.0,8.0,52,0.00,,,-99.99,Weather View 32 v60,2013-02-22 16:10:00,
2013-02-22 08:13:00,48.0,36.0,30.21,NNE,24,2.0,5.0,63,0.00,,,-99.99,Weather View 32 v60,2013-02-22 16:13:00,
2013-02-22 08:18:00,48.0,36.0,30.21,NNE,18,4.0,6.0,63,0.00,,,-99.99,Weather View 32 v60,2013-02-22 16:18:00,
2013-02-22 08:28:00,48.0,35.6,30.21,NNE,12,4.0,8.0,62,0.00,,,-99.99,Weather View 32 v60,2013-02-22 16:28:00,
2013-02-22 08:38:00,49.6,36.3,30.21,NNW,348,2.0,8.0,60,0.00,,,-99.99,Weather View 32 v60,2013-02-22 16:38:00,
2013-02-22 08:43:00,49.6,35.8,30.21,NNE,23,5.0,8.0,59,0.00,,,-99.99,Weather View 32 v60,2013-02-22 16:43:00,
2013-02-22 08:48:00,49.9,36.1,30.21,NE,37,3.0,8.0,59,0.00,,,-99.99,Weather View 32 v60,2013-02-22 16:48:00,
2013-02-22 08:50:00,57.1,36.5,30.22,North,6,2.0,7.0,46,0.00,,,-99.99,Weather View 32 v60,2013-02-22 16:50:00,
2013-02-22 08:53:00,50.8,36.5,30.21,NE,38,1.0,8.0,58,0.00,,,-99.99,Weather View 32 v60,2013-02-22 16:53:00,
2013-02-22 08:55:00,57.5,36.8,30.22,NNW,347,2.0,7.0,46,0.00,,,-99.99,Weather View 32 v60,2013-02-22 16:55:00,
2013-02-22 08:58:00,52.0,36.8,30.21,NE,48,1.0,8.0,56,0.00,,,-99.99,Weather View 32 v60,2013-02-22 16:58:00,
2013-02-22 09:03:00,52.9,36.7,30.21,NNE,30,3.0,8.0,54,0.00,,,-99.99,Weather View 32 v60,2013-02-22 17:03:00,
2013-02-22 09:08:00,53.5,36.3,30.22,NW,326,3.0,8.0,52,0.00,,,-99.99,Weather View 32 v60,2013-02-22 17:08:00,
2013-02-22 09:15:00,56.4,35.3,30.22,NW,319,5.0,8.0,45,0.00,,,-99.99,Weather View 32 v60,2013-02-22 17:15:00,
2013-02-22 09:18:00,53.8,36.1,30.22,NNE,20,4.0,8.0,51,0.00,,,-99.99,Weather View 32 v60,2013-02-22 17:18:00,
2013-02-22 09:20:00,56.7,35.0,30.22,NNW,332,5.0,8.0,44,0.00,,,-99.99,Weather View 32 v60,2013-02-22 17:20:00,
2013-02-22 09:23:00,54.0,36.2,30.22,NE,54,5.0,7.0,51,0.00,,,-99.99,Weather View 32 v60,2013-02-22 17:23:00,
2013-02-22 09:28:00,54.1,36.3,30.22,NNE,26,5.0,7.0,51,0.00,,,-99.99,Weather View 32 v60,2013-02-22 17:28:00,
2013-02-22 09:33:00,54.9,36.6,30.21,NE,39,1.0,7.0,50,0.00,,,-99.99,Weather View 32 v60,2013-02-22 17:33:00,
2013-02-22 09:35:00,58.2,35.2,30.21,NW,323,2.0,8.0,42,0.00,,,-99.99,Weather View 32 v60,2013-02-22 17:35:00,
2013-02-22 09:38:00,55.7,35.7,30.22,East,90,3.0,7.0,47,0.00,,,-99.99,Weather View 32 v60,2013-02-22 17:38:00,
2013-02-22 09:48:00,55.7,36.3,30.22,NE,46,5.0,7.0,48,0.00,,,-99.99,Weather View 32 v60,2013-02-22 17:48:00,
2013-02-22 10:03:00,57.8,36.0,30.22,NW,322,6.0,8.0,44,0.00,,,-99.99,Weather View 32 v60,2013-02-22 18:03:00,
2013-02-22 10:08:00,56.3,35.2,30.22,North,352,4.0,8.0,45,0.00,,,-99.99,Weather View 32 v60,2013-02-22 18:08:00,
2013-02-22 10:13:00,56.2,34.5,30.22,West,279,4.0,8.0,44,0.00,,,-99.99,Weather View 32 v60,2013-02-22 18:13:00,
2013-02-22 10:15:00,61.6,35.7,30.21,West,271,2.0,8.0,38,0.00,,,-99.99,Weather View 32 v60,2013-02-22 18:15:00,
2013-02-22 10:28:00,57.0,35.3,30.21,NW,325,5.0,8.0,44,0.00,,,-99.99,Weather View 32 v60,2013-02-22 18:28:00,
2013-02-22 10:30:00,61.7,34.4,30.22,NW,305,5.0,8.0,36,0.00,,,-99.99,Weather View 32 v60,2013-02-22 18:30:00,
2013-02-22 10:33:00,57.7,34.7,30.21,WNW,296,4.0,8.0,42,0.00,,,-99.99,Weather View 32 v60,2013-02-22 18:33:00,
2013-02-22 10:43:00,58.7,35.6,30.21,NW,305,3.0,8.0,42,0.00,,,-99.99,Weather View 32 v60,2013-02-22 18:43:00,
2013-02-22 10:48:00,59.1,35.4,30.21,WNW,298,4.0,8.0,41,0.00,,,-99.99,Weather View 32 v60,2013-02-22 18:48:00,
2013-02-22 10:50:00,63.0,32.6,30.21,West,260,1.0,8.0,32,0.00,,,-99.99,Weather View 32 v60,2013-02-22 18:50:00,
2013-02-22 10:53:00,59.5,35.7,30.21,WNW,286,3.0,8.0,41,0.00,,,-99.99,Weather View 32 v60,2013-02-22 18:53:00,
2013-02-22 10:58:00,59.2,35.5,30.21,WNW,282,2.0,8.0,41,0.00,,,-99.99,Weather View 32 v60,2013-02-22 18:58:00,
2013-02-22 11:03:00,59.3,34.9,30.21,SW,222,2.0,8.0,40,0.00,,,-99.99,Weather View 32 v60,2013-02-22 19:03:00,
2013-02-22 11:13:00,61.3,35.4,30.21,NW,312,4.0,8.0,38,0.00,,,-99.99,Weather View 32 v60,2013-02-22 19:13:00,
2013-02-22 11:23:00,61.5,34.9,30.21,SSE,164,2.0,8.0,37,0.00,,,-99.99,Weather View 32 v60,2013-02-22 19:23:00,
2013-02-22 11:25:00,63.5,35.3,30.19,SW,219,4.0,10.0,35,0.00,,,-99.99,Weather View 32 v60,2013-02-22 19:25:00,
2013-02-22 11:30:00,62.8,34.7,30.18,SE,126,5.0,11.0,35,0.00,,,-99.99,Weather View 32 v60,2013-02-22 19:30:00,
2013-02-22 11:35:00,61.7,34.4,30.22,NW,305,5.0,8.0,36,0.00,,,-99.99,Weather View 32 v60,2013-02-22 19:35:00,
2013-02-22 11:40:00,62.7,36.7,30.18,SW,223,4.0,11.0,38,0.00,,,-99.99,Weather View 32 v60,2013-02-22 19:40:00,
2013-02-22 11:43:00,62.8,31.6,30.21,WSW,252,1.0,8.0,31,0.00,,,-99.99,Weather View 32 v60,2013-02-22 19:43:00,
2013-02-22 11:48:00,62.8,31.6,30.21,NW,308,2.0,8.0,31,0.00,,,-99.99,Weather View 32 v60,2013-02-22 19:48:00,
2013-02-22 11:58:00,64.1,33.6,30.21,SW,219,3.0,8.0,32,0.00,,,-99.99,Weather View 32 v60,2013-02-22 19:58:00,
2013-02-22 12:03:00,62.9,33.3,30.20,SE,138,4.0,8.0,33,0.00,,,-99.99,Weather View 32 v60,2013-02-22 20:03:00,
2013-02-22 12:08:00,62.3,33.5,30.20,SW,219,5.0,10.0,34,0.00,,,-99.99,Weather View 32 v60,2013-02-22 20:08:00,
2013-02-22 12:13:00,63.4,34.5,30.20,SSW,209,4.0,10.0,34,0.00,,,-99.99,Weather View 32 v60,2013-02-22 20:13:00,
2013-02-22 12:18:00,62.7,33.9,30.19,ESE,115,5.0,10.0,34,0.00,,,-99.99,Weather View 32 v60,2013-02-22 20:18:00,
2013-02-22 12:23:00,62.8,34.0,30.19,SE,127,6.0,10.0,34,0.00,,,-99.99,Weather View 32 v60,2013-02-22 20:23:00,
2013-02-22 12:33:00,62.8,34.7,30.18,SE,126,5.0,11.0,35,0.00,,,-99.99,Weather View 32 v60,2013-02-22 20:33:00,
2013-02-22 12:48:00,62.9,36.8,30.18,SE,129,7.0,13.0,38,0.00,,,-99.99,Weather View 32 v60,2013-02-22 20:48:00,
2013-02-22 12:53:00,63.0,36.9,30.18,South,171,6.0,13.0,38,0.00,,,-99.99,Weather View 32 v60,2013-02-22 20:53:00,
2013-02-22 12:58:00,63.4,37.3,30.18,SE,140,5.0,13.0,38,0.00,,,-99.99,Weather View 32 v60,2013-02-22 20:58:00,
2013-02-22 13:03:00,63.8,37.6,30.18,ESE,117,3.0,13.0,38,0.00,,,-99.99,Weather View 32 v60,2013-02-22 21:03:00,
2013-02-22 13:13:00,63.9,36.4,30.17,South,174,3.0,13.0,36,0.00,,,-99.99,Weather View 32 v60,2013-02-22 21:13:00,
2013-02-22 13:18:00,63.9,36.4,30.17,East,95,3.0,13.0,36,0.00,,,-99.99,Weather View 32 v60,2013-02-22 21:18:00,
2013-02-22 13:28:00,64.2,34.4,30.16,SSE,161,3.0,13.0,33,0.00,,,-99.99,Weather View 32 v60,2013-02-22 21:28:00,
2013-02-22 13:30:00,64.6,35.5,30.13,South,176,8.0,12.0,34,0.00,,,-99.99,Weather View 32 v60,2013-02-22 21:30:00,
2013-02-22 13:33:00,64.4,34.6,30.16,South,179,8.0,13.0,33,0.00,,,-99.99,Weather View 32 v60,2013-02-22 21:33:00,
2013-02-22 13:43:00,65.2,33.7,30.15,SSW,207,5.0,13.0,31,0.00,,,-99.99,Weather View 32 v60,2013-02-22 21:43:00,
2013-02-22 13:45:00,64.9,35.0,30.14,SSW,204,11.0,12.0,33,0.00,,,-99.99,Weather View 32 v60,2013-02-22 21:45:00,
2013-02-22 13:48:00,65.1,33.6,30.15,ESE,116,6.0,13.0,31,0.00,,,-99.99,Weather View 32 v60,2013-02-22 21:48:00,
2013-02-22 13:53:00,65.0,33.6,30.15,ESE,118,6.0,12.0,31,0.00,,,-99.99,Weather View 32 v60,2013-02-22 21:53:00,
2013-02-22 13:58:00,65.5,33.2,30.15,SSE,163,3.0,12.0,30,0.00,,,-99.99,Weather View 32 v60,2013-02-22 21:58:00,
2013-02-22 14:00:00,64.4,35.4,30.13,South,174,8.0,12.0,34,0.00,,,-99.99,Weather View 32 v60,2013-02-22 22:00:00,
2013-02-22 14:03:00,66.1,33.7,30.14,SSW,205,2.0,12.0,30,0.00,,,-99.99,Weather View 32 v60,2013-02-22 22:03:00,
2013-02-22 14:08:00,65.9,33.5,30.14,ENE,69,4.0,12.0,30,0.00,,,-99.99,Weather View 32 v60,2013-02-22 22:08:00,
2013-02-22 14:13:00,65.7,33.3,30.14,SE,127,6.0,12.0,30,0.00,,,-99.99,Weather View 32 v60,2013-02-22 22:13:00,
2013-02-22 14:18:00,65.4,34.7,30.14,SW,229,8.0,12.0,32,0.00,,,-99.99,Weather View 32 v60,2013-02-22 22:18:00,
2013-02-22 14:20:00,64.2,35.9,30.13,SSE,149,6.0,12.0,35,0.00,,,-99.99,Weather View 32 v60,2013-02-22 22:20:00,
2013-02-22 14:25:00,63.8,36.3,30.13,East,100,10.0,12.0,36,0.00,,,-99.99,Weather View 32 v60,2013-02-22 22:25:00,
2013-02-22 14:28:00,65.1,35.2,30.13,SSE,159,6.0,11.0,33,0.00,,,-99.99,Weather View 32 v60,2013-02-22 22:28:00,
2013-02-22 14:30:00,64.3,36.7,30.13,SSE,154,8.0,12.0,36,0.00,,,-99.99,Weather View 32 v60,2013-02-22 22:30:00,
2013-02-22 14:33:00,64.6,35.5,30.13,South,176,8.0,12.0,34,0.00,,,-99.99,Weather View 32 v60,2013-02-22 22:33:00,
2013-02-22 14:38:00,64.5,34.7,30.13,South,173,6.0,12.0,33,0.00,,,-99.99,Weather View 32 v60,2013-02-22 22:38:00,
2013-02-22 14:40:00,64.0,38.5,30.13,SE,129,10.0,12.0,39,0.00,,,-99.99,Weather View 32 v60,2013-02-22 22:40:00,
2013-02-22 14:43:00,64.6,35.5,30.14,South,169,4.0,12.0,34,0.00,,,-99.99,Weather View 32 v60,2013-02-22 22:43:00,
2013-02-22 14:50:00,64.0,39.1,30.13,SE,126,3.0,12.0,40,0.00,,,-99.99,Weather View 32 v60,2013-02-22 22:50:00,
2013-02-22 14:53:00,64.3,34.5,30.14,SSW,211,11.0,12.0,33,0.00,,,-99.99,Weather View 32 v60,2013-02-22 22:53:00,
2013-02-22 14:55:00,63.6,38.8,30.13,South,174,7.0,12.0,40,0.00,,,-99.99,Weather View 32 v60,2013-02-22 22:55:00,
2013-02-22 14:58:00,64.3,35.3,30.14,SE,127,6.0,12.0,34,0.00,,,-99.99,Weather View 32 v60,2013-02-22 22:58:00,
2013-02-22 15:00:00,63.0,38.9,30.13,ESE,116,4.0,12.0,41,0.00,,,-99.99,Weather View 32 v60,2013-02-22 23:00:00,
2013-02-22 15:05:00,62.8,39.3,30.13,SE,126,7.0,12.0,42,0.00,,,-99.99,Weather View 32 v60,2013-02-22 23:05:00,
2013-02-22 15:08:00,64.5,35.4,30.13,SSE,154,8.0,12.0,34,0.00,,,-99.99,Weather View 32 v60,2013-02-22 23:08:00,
2013-02-22 15:18:00,64.3,35.3,30.13,SSE,157,6.0,12.0,34,0.00,,,-99.99,Weather View 32 v60,2013-02-22 23:18:00,
2013-02-22 15:30:00,62.2,39.4,30.12,SE,133,5.0,12.0,43,0.00,,,-99.99,Weather View 32 v60,2013-02-22 23:30:00,
2013-02-22 15:33:00,64.3,36.7,30.13,SSE,154,8.0,12.0,36,0.00,,,-99.99,Weather View 32 v60,2013-02-22 23:33:00,
2013-02-22 15:35:00,62.1,39.3,30.12,South,171,4.0,12.0,43,0.00,,,-99.99,Weather View 32 v60,2013-02-22 23:35:00,
2013-02-22 15:38:00,64.5,37.6,30.13,SE,131,5.0,12.0,37,0.00,,,-99.99,Weather View 32 v60,2013-02-22 23:38:00,
2013-02-22 15:45:00,61.7,39.5,30.11,SSE,148,6.0,12.0,44,0.00,,,-99.99,Weather View 32 v60,2013-02-22 23:45:00,
2013-02-22 15:48:00,64.1,38.6,30.13,ESE,120,8.0,12.0,39,0.00,,,-99.99,Weather View 32 v60,2013-02-22 23:48:00,
2013-02-22 15:50:00,62.1,39.9,30.11,South,174,5.0,12.0,44,0.00,,,-99.99,Weather View 32 v60,2013-02-22 23:50:00,
2013-02-22 15:55:00,61.7,40.7,30.12,South,176,4.0,12.0,46,0.00,,,-99.99,Weather View 32 v60,2013-02-22 23:55:00,
2013-02-22 16:00:00,61.2,40.2,30.12,SE,135,5.0,12.0,46,0.00,,,-99.99,Weather View 32 v60,2013-02-23 00:00:00,
2013-02-22 16:05:00,60.3,40.5,30.12,SE,140,4.0,12.0,48,0.00,,,-99.99,Weather View 32 v60,2013-02-23 00:05:00,
2013-02-22 16:10:00,59.7,40.5,30.12,SSE,156,7.0,12.0,49,0.00,,,-99.99,Weather View 32 v60,2013-02-23 00:10:00,
2013-02-22 16:13:00,62.6,39.1,30.13,SE,134,7.0,12.0,42,0.00,,,-99.99,Weather View 32 v60,2013-02-23 00:13:00,
2013-02-22 16:18:00,62.5,39.6,30.12,SSE,167,6.0,12.0,43,0.00,,,-99.99,Weather View 32 v60,2013-02-23 00:18:00,
2013-02-22 16:20:00,59.0,41.4,30.11,SSW,204,6.0,11.0,52,0.00,,,-99.99,Weather View 32 v60,2013-02-23 00:20:00,
2013-02-22 16:23:00,62.5,39.6,30.12,South,170,5.0,12.0,43,0.00,,,-99.99,Weather View 32 v60,2013-02-23 00:23:00,
2013-02-22 16:28:00,62.1,39.9,30.12,ESE,122,9.0,12.0,44,0.00,,,-99.99,Weather View 32 v60,2013-02-23 00:28:00,
2013-02-22 16:35:00,58.2,42.5,30.12,SW,225,3.0,10.0,56,0.00,,,-99.99,Weather View 32 v60,2013-02-23 00:35:00,
2013-02-22 16:40:00,58.0,42.4,30.12,SE,141,2.0,10.0,56,0.00,,,-99.99,Weather View 32 v60,2013-02-23 00:40:00,
2013-02-22 16:43:00,61.9,39.1,30.12,ESE,117,9.0,12.0,43,0.00,,,-99.99,Weather View 32 v60,2013-02-23 00:43:00,
2013-02-22 16:55:00,57.2,42.5,30.12,South,171,7.0,10.0,58,0.00,,,-99.99,Weather View 32 v60,2013-02-23 00:55:00,
2013-02-22 17:00:00,56.9,42.7,30.13,SSE,155,3.0,10.0,59,0.00,,,-99.99,Weather View 32 v60,2013-02-23 01:00:00,
2013-02-22 17:10:00,56.1,42.8,30.13,South,170,6.0,10.0,61,0.00,,,-99.99,Weather View 32 v60,2013-02-23 01:10:00,
2013-02-22 17:15:00,55.9,42.6,30.13,South,169,3.0,10.0,61,0.00,,,-99.99,Weather View 32 v60,2013-02-23 01:15:00,
2013-02-22 17:18:00,59.4,41.2,30.12,SE,140,6.0,12.0,51,0.00,,,-99.99,Weather View 32 v60,2013-02-23 01:18:00,
2013-02-22 17:20:00,55.6,42.8,30.13,SSE,154,4.0,10.0,62,0.00,,,-99.99,Weather View 32 v60,2013-02-23 01:20:00,
2013-02-22 17:25:00,55.3,42.9,30.13,ESE,118,4.0,10.0,63,0.00,,,-99.99,Weather View 32 v60,2013-02-23 01:25:00,
2013-02-22 17:28:00,58.5,41.9,30.12,SE,125,5.0,11.0,54,0.00,,,-99.99,Weather View 32 v60,2013-02-23 01:28:00,
2013-02-22 17:30:00,55.1,42.7,30.14,SE,140,2.0,10.0,63,0.00,,,-99.99,Weather View 32 v60,2013-02-23 01:30:00,
2013-02-22 17:33:00,58.3,42.2,30.12,SSW,206,8.0,10.0,55,0.00,,,-99.99,Weather View 32 v60,2013-02-23 01:33:00,
2013-02-22 17:35:00,55.0,43.0,30.14,SE,140,2.0,8.0,64,0.00,,,-99.99,Weather View 32 v60,2013-02-23 01:35:00,
2013-02-22 17:39:00,58.2,42.5,30.12,SW,225,3.0,10.0,56,0.00,,,-99.99,Weather View 32 v60,2013-02-23 01:39:00,
2013-02-22 17:48:00,57.7,42.5,30.12,South,174,3.0,10.0,57,0.00,,,-99.99,Weather View 32 v60,2013-02-23 01:48:00,
2013-02-22 17:50:00,54.4,42.9,30.14,SW,221,2.0,8.0,65,0.00,,,-99.99,Weather View 32 v60,2013-02-23 01:50:00,
2013-02-22 17:53:00,57.4,42.7,30.12,South,172,4.0,10.0,58,0.00,,,-99.99,Weather View 32 v60,2013-02-23 01:53:00,
2013-02-22 18:08:00,56.4,42.7,30.13,SE,133,5.0,10.0,60,0.00,,,-99.99,Weather View 32 v60,2013-02-23 02:08:00,
2013-02-22 18:30:00,53.9,43.2,30.14,SW,221,2.0,9.0,67,0.00,,,-99.99,Weather View 32 v60,2013-02-23 02:30:00,
2013-02-22 18:39:00,55.0,43.0,30.14,SE,140,2.0,8.0,64,0.00,,,-99.99,Weather View 32 v60,2013-02-23 02:39:00,
2013-02-22 18:40:00,54.2,42.7,30.13,WSW,242,5.0,9.0,65,0.00,,,-99.99,Weather View 32 v60,2013-02-23 02:40:00,
2013-02-22 18:48:00,54.5,43.0,30.14,SE,124,1.0,8.0,65,0.00,,,-99.99,Weather View 32 v60,2013-02-23 02:48:00,
2013-02-22 18:55:00,55.6,41.0,30.14,West,277,3.0,9.0,58,0.00,,,-99.99,Weather View 32 v60,2013-02-23 02:55:00,
2013-02-22 18:58:00,54.2,43.1,30.14,SSE,164,5.0,8.0,66,0.00,,,-99.99,Weather View 32 v60,2013-02-23 02:58:00,
2013-02-22 19:03:00,54.4,43.3,30.14,South,175,2.0,9.0,66,0.00,,,-99.99,Weather View 32 v60,2013-02-23 03:03:00,
2013-02-22 19:05:00,55.8,40.3,30.14,WSW,254,3.0,9.0,56,0.00,,,-99.99,Weather View 32 v60,2013-02-23 03:05:00,
2013-02-22 19:08:00,54.2,43.1,30.15,South,175,4.0,9.0,66,0.00,,,-99.99,Weather View 32 v60,2013-02-23 03:08:00,
2013-02-22 19:15:00,53.1,42.0,30.15,SSE,148,2.0,9.0,66,0.00,,,-99.99,Weather View 32 v60,2013-02-23 03:15:00,
2013-02-22 19:18:00,54.0,43.3,30.15,North,4,2.0,9.0,67,0.00,,,-99.99,Weather View 32 v60,2013-02-23 03:18:00,
2013-02-22 19:20:00,52.4,42.5,30.15,SSW,204,2.0,9.0,69,0.00,,,-99.99,Weather View 32 v60,2013-02-23 03:20:00,
2013-02-22 19:23:00,53.9,43.2,30.15,WSW,243,1.0,9.0,67,0.00,,,-99.99,Weather View 32 v60,2013-02-23 03:23:00,
2013-02-22 19:25:00,52.0,42.5,30.16,South,176,2.0,9.0,70,0.00,,,-99.99,Weather View 32 v60,2013-02-23 03:25:00,
2013-02-22 19:28:00,53.9,43.2,30.15,NNW,330,1.0,9.0,67,0.00,,,-99.99,Weather View 32 v60,2013-02-23 03:28:00,
2013-02-22 19:35:00,52.0,42.5,30.16,WNW,298,6.0,11.0,70,0.00,,,-99.99,Weather View 32 v60,2013-02-23 03:35:00,
2013-02-22 19:38:00,53.9,42.8,30.14,NNE,22,1.0,9.0,66,0.00,,,-99.99,Weather View 32 v60,2013-02-23 03:38:00,
2013-02-22 19:48:00,54.8,42.0,30.14,WNW,283,4.0,9.0,62,0.00,,,-99.99,Weather View 32 v60,2013-02-23 03:48:00,
2013-02-22 19:50:00,54.6,40.1,30.16,NW,305,6.0,11.0,58,0.00,,,-99.99,Weather View 32 v60,2013-02-23 03:50:00,
2013-02-22 19:53:00,55.3,41.2,30.14,West,281,4.0,9.0,59,0.00,,,-99.99,Weather View 32 v60,2013-02-23 03:53:00,
2013-02-22 20:00:00,53.5,41.6,30.16,WNW,296,2.0,11.0,64,0.00,,,-99.99,Weather View 32 v60,2013-02-23 04:00:00,
2013-02-22 20:03:00,55.8,40.8,30.14,WNW,283,4.0,9.0,57,0.00,,,-99.99,Weather View 32 v60,2013-02-23 04:03:00,
2013-02-22 20:05:00,53.0,40.7,30.16,NW,318,4.0,11.0,63,0.00,,,-99.99,Weather View 32 v60,2013-02-23 04:05:00,
2013-02-22 20:10:00,52.2,41.6,30.17,WSW,249,3.0,11.0,67,0.00,,,-99.99,Weather View 32 v60,2013-02-23 04:10:00,
2013-02-22 20:13:00,54.5,41.7,30.15,SSE,151,2.0,9.0,62,0.00,,,-99.99,Weather View 32 v60,2013-02-23 04:13:00,
2013-02-22 20:15:00,51.4,41.9,30.18,West,265,2.0,11.0,70,0.00,,,-99.99,Weather View 32 v60,2013-02-23 04:15:00,
2013-02-22 20:20:00,51.0,42.3,30.18,WNW,282,2.0,11.0,72,0.00,,,-99.99,Weather View 32 v60,2013-02-23 04:20:00,
2013-02-22 20:25:00,51.0,42.3,30.18,SSE,162,1.0,11.0,72,0.00,,,-99.99,Weather View 32 v60,2013-02-23 04:25:00,
2013-02-22 20:30:00,50.8,42.4,30.18,South,179,2.0,11.0,73,0.00,,,-99.99,Weather View 32 v60,2013-02-23 04:30:00,
2013-02-22 20:33:00,51.7,42.6,30.16,West,263,4.0,9.0,71,0.00,,,-99.99,Weather View 32 v60,2013-02-23 04:33:00,
2013-02-22 20:35:00,50.7,42.7,30.18,SW,216,1.0,11.0,74,0.00,,,-99.99,Weather View 32 v60,2013-02-23 04:35:00,
2013-02-22 20:38:00,52.0,42.5,30.16,WNW,298,6.0,11.0,70,0.00,,,-99.99,Weather View 32 v60,2013-02-23 04:38:00,
2013-02-22 20:40:00,50.5,42.5,30.18,South,172,2.0,11.0,74,0.00,,,-99.99,Weather View 32 v60,2013-02-23 04:40:00,
2013-02-22 20:43:00,53.4,40.7,30.16,NNW,329,5.0,11.0,62,0.00,,,-99.99,Weather View 32 v60,2013-02-23 04:43:00,
2013-02-22 20:45:00,50.6,43.0,30.18,SSE,167,2.0,11.0,75,0.00,,,-99.99,Weather View 32 v60,2013-02-23 04:45:00,
2013-02-22 20:48:00,54.3,40.2,30.16,NW,314,9.0,11.0,59,0.00,,,-99.99,Weather View 32 v60,2013-02-23 04:48:00,
2013-02-22 20:50:00,50.5,42.9,30.18,SSW,207,3.0,8.0,75,0.00,,,-99.99,Weather View 32 v60,2013-02-23 04:50:00,
2013-02-22 20:55:00,50.3,42.7,30.18,SSW,207,2.0,7.0,75,0.00,,,-99.99,Weather View 32 v60,2013-02-23 04:55:00,
2013-02-22 20:58:00,54.4,40.8,30.16,West,266,2.0,11.0,60,0.00,,,-99.99,Weather View 32 v60,2013-02-23 04:58:00,
2013-02-22 21:00:00,50.3,43.0,30.19,East,96,2.0,7.0,76,0.00,,,-99.99,Weather View 32 v60,2013-02-23 05:00:00,
2013-02-22 21:05:00,50.3,43.0,30.18,SSE,161,3.0,7.0,76,0.00,,,-99.99,Weather View 32 v60,2013-02-23 05:05:00,
2013-02-22 21:10:00,50.2,42.9,30.18,South,173,2.0,5.0,76,0.00,,,-99.99,Weather View 32 v60,2013-02-23 05:10:00,
2013-02-22 21:15:00,50.1,42.8,30.18,NNW,347,6.0,8.0,76,0.00,,,-99.99,Weather View 32 v60,2013-02-23 05:15:00,
2013-02-22 21:20:00,51.2,41.0,30.18,NW,308,6.0,9.0,68,0.00,,,-99.99,Weather View 32 v60,2013-02-23 05:20:00,
2013-02-22 21:25:00,52.0,40.2,30.18,NW,320,10.0,12.0,64,0.00,,,-99.99,Weather View 32 v60,2013-02-23 05:25:00,
2013-02-22 21:30:00,52.3,39.6,30.18,North,356,3.0,12.0,62,0.00,,,-99.99,Weather View 32 v60,2013-02-23 05:30:00,
2013-02-22 21:35:00,52.4,39.3,30.18,North,357,3.0,12.0,61,0.00,,,-99.99,Weather View 32 v60,2013-02-23 05:35:00,
2013-02-22 21:40:00,52.4,38.9,30.18,WNW,296,3.0,12.0,60,0.00,,,-99.99,Weather View 32 v60,2013-02-23 05:40:00,
2013-02-22 21:45:00,52.5,38.1,30.18,NW,318,4.0,12.0,58,0.00,,,-99.99,Weather View 32 v60,2013-02-23 05:45:00,
2013-02-22 21:50:00,52.7,37.9,30.18,WNW,284,2.0,12.0,57,0.00,,,-99.99,Weather View 32 v60,2013-02-23 05:50:00,
2013-02-22 21:55:00,52.7,37.9,30.18,North,350,2.0,12.0,57,0.00,,,-99.99,Weather View 32 v60,2013-02-23 05:55:00,
2013-02-22 22:00:00,52.5,37.7,30.18,WNW,299,7.0,12.0,57,0.00,,,-99.99,Weather View 32 v60,2013-02-23 06:00:00,
2013-02-22 22:05:00,52.3,37.9,30.18,WNW,286,2.0,13.0,58,0.00,,,-99.99,Weather View 32 v60,2013-02-23 06:05:00,
2013-02-22 22:10:00,52.0,37.7,30.17,WNW,297,8.0,13.0,58,0.00,,,-99.99,Weather View 32 v60,2013-02-23 06:10:00,
2013-02-22 22:15:00,51.8,37.9,30.17,NNW,335,3.0,13.0,59,0.00,,,-99.99,Weather View 32 v60,2013-02-23 06:15:00,
2013-02-22 22:20:00,51.5,38.0,30.17,North,354,3.0,13.0,60,0.00,,,-99.99,Weather View 32 v60,2013-02-23 06:20:00,
2013-02-22 22:25:00,51.2,37.8,30.17,WNW,292,6.0,13.0,60,0.00,,,-99.99,Weather View 32 v60,2013-02-23 06:25:00,
2013-02-22 22:30:00,51.0,38.0,30.17,NW,322,8.0,13.0,61,0.00,,,-99.99,Weather View 32 v60,2013-02-23 06:30:00,
2013-02-22 22:35:00,50.8,38.2,30.17,NW,309,4.0,13.0,62,0.00,,,-99.99,Weather View 32 v60,2013-02-23 06:35:00,
2013-02-22 22:40:00,50.6,38.0,30.17,NW,322,7.0,13.0,62,0.00,,,-99.99,Weather View 32 v60,2013-02-23 06:40:00,
2013-02-22 22:45:00,50.5,38.4,30.17,NNW,327,5.0,13.0,63,0.00,,,-99.99,Weather View 32 v60,2013-02-23 06:45:00,
2013-02-22 22:50:00,50.4,38.3,30.16,WNW,302,3.0,13.0,63,0.00,,,-99.99,Weather View 32 v60,2013-02-23 06:50:00,
2013-02-22 22:55:00,50.2,38.5,30.17,WNW,295,3.0,13.0,64,0.00,,,-99.99,Weather View 32 v60,2013-02-23 06:55:00,
2013-02-22 23:00:00,50.0,38.3,30.17,NW,309,5.0,13.0,64,0.00,,,-99.99,Weather View 32 v60,2013-02-23 07:00:00,
2013-02-22 23:05:00,49.9,38.6,30.17,WNW,302,3.0,12.0,65,0.00,,,-99.99,Weather View 32 v60,2013-02-23 07:05:00,
2013-02-22 23:10:00,49.9,39.0,30.17,NW,304,7.0,11.0,66,0.00,,,-99.99,Weather View 32 v60,2013-02-23 07:10:00,
2013-02-22 23:15:00,50.0,39.1,30.17,WNW,298,4.0,11.0,66,0.00,,,-99.99,Weather View 32 v60,2013-02-23 07:15:00,
2013-02-22 23:20:00,50.1,39.2,30.17,WNW,300,3.0,11.0,66,0.00,,,-99.99,Weather View 32 v60,2013-02-23 07:20:00,
2013-02-22 23:25:00,50.0,39.1,30.17,WNW,300,3.0,11.0,66,0.00,,,-99.99,Weather View 32 v60,2013-02-23 07:25:00,
2013-02-22 23:30:00,50.0,39.5,30.17,NW,311,5.0,11.0,67,0.00,,,-99.99,Weather View 32 v60,2013-02-23 07:30:00,
2013-02-22 23:35:00,50.1,39.6,30.17,West,273,3.0,11.0,67,0.00,,,-99.99,Weather View 32 v60,2013-02-23 07:35:00,
2013-02-22 23:40:00,50.0,39.5,30.17,West,265,2.0,10.0,67,0.00,,,-99.99,Weather View 32 v60,2013-02-23 07:40:00,
2013-02-22 23:45:00,49.9,39.4,30.16,SW,227,2.0,10.0,67,0.00,,,-99.99,Weather View 32 v60,2013-02-23 07:45:00,
2013-02-22 23:50:00,49.5,39.0,30.16,SW,226,0.0,10.0,67,0.00,,,-99.99,Weather View 32 v60,2013-02-23 07:50:00,
2013-02-22 23:55:00,49.2,38.7,30.16,WSW,240,1.0,10.0,67,0.00,,,-99.99,Weather View 32 v60,2013-02-23 07:55:00,